createdAt,value
2023-02-11T00:01:35.305Z,-0.60
2023-02-11T00:04:05.502Z,-0.60
2023-02-11T00:06:34.883Z,-0.70
2023-02-11T00:09:02.872Z,-0.80
2023-02-11T00:11:30.824Z,-0.80
2023-02-11T00:14:00.930Z,-0.80
2023-02-11T00:16:29.612Z,-0.80
2023-02-11T00:18:59.001Z,-0.80
2023-02-11T00:21:27.889Z,-0.80
2023-02-11T00:23:57.375Z,-0.80
2023-02-11T00:26:56.050Z,-0.80
2023-02-11T00:29:23.748Z,-0.80
2023-02-11T00:31:51.554Z,-0.80
2023-02-11T00:34:19.097Z,-0.80
2023-02-11T00:36:46.599Z,-0.80
2023-02-11T00:39:14.162Z,-0.80
2023-02-11T00:41:41.849Z,-0.80
2023-02-11T00:44:09.338Z,-0.80
2023-02-11T00:46:36.832Z,-0.80
2023-02-11T00:49:04.437Z,-0.70
2023-02-11T00:51:31.891Z,-0.70
2023-02-11T00:53:59.440Z,-0.70
2023-02-11T00:56:27.473Z,-0.60
2023-02-11T00:58:55.058Z,-0.60
2023-02-11T01:01:22.786Z,-0.60
2023-02-11T01:03:50.763Z,-0.60
2023-02-11T01:06:18.677Z,-0.60
2023-02-11T01:08:46.253Z,-0.60
2023-02-11T01:11:18.730Z,-0.60
2023-02-11T01:13:48.780Z,-0.60
2023-02-11T01:16:17.086Z,-0.50
2023-02-11T01:18:45.594Z,-0.60
2023-02-11T01:21:13.153Z,-0.60
2023-02-11T01:23:40.800Z,-0.60
2023-02-11T01:26:08.411Z,-0.60
2023-02-11T01:28:35.997Z,-0.50
2023-02-11T01:31:04.627Z,-0.50
2023-02-11T01:33:32.212Z,-0.50
2023-02-11T01:36:04.796Z,-0.50
2023-02-11T01:38:33.522Z,-0.50
2023-02-11T01:41:07.010Z,-0.40
2023-02-11T01:43:42.306Z,-0.40
2023-02-11T01:46:36.643Z,-0.40
2023-02-11T01:49:20.395Z,-0.40
2023-02-11T01:52:04.511Z,-0.30
2023-02-11T01:54:59.949Z,-0.30
2023-02-11T01:57:31.561Z,-0.40
2023-02-11T02:00:01.791Z,-0.40
2023-02-11T02:02:47.183Z,-0.40
2023-02-11T02:05:24.971Z,-0.40
2023-02-11T02:08:17.564Z,-0.30
2023-02-11T02:10:49.750Z,-0.40
2023-02-11T02:13:17.609Z,-0.40
2023-02-11T02:16:12.265Z,-0.30
2023-02-11T02:19:03.915Z,-0.30
2023-02-11T02:22:14.397Z,-0.30
2023-02-11T02:25:09.377Z,-0.30
2023-02-11T02:28:12.842Z,-0.20
2023-02-11T02:31:27.090Z,-0.20
2023-02-11T02:34:10.520Z,-0.10
2023-02-11T02:36:58.513Z,-0.20
2023-02-11T02:39:30.810Z,-0.10
2023-02-11T02:41:59.021Z,0.00
2023-02-11T02:44:26.813Z,0.00
2023-02-11T02:46:54.398Z,0.00
2023-02-11T02:49:21.892Z,0.00
2023-02-11T02:52:15.966Z,0.10
2023-02-11T02:55:22.552Z,0.10
2023-02-11T02:58:19.930Z,0.00
2023-02-11T03:01:11.378Z,0.00
2023-02-11T03:04:27.301Z,0.00
2023-02-11T03:07:06.408Z,0.00
2023-02-11T03:10:00.369Z,0.10
2023-02-11T03:12:32.133Z,0.00
2023-02-11T03:15:02.215Z,0.10
2023-02-11T03:17:34.389Z,0.00
2023-02-11T03:20:04.486Z,0.00
2023-02-11T03:22:41.948Z,0.00
2023-02-11T03:25:10.233Z,0.00
2023-02-11T03:27:48.322Z,0.20
2023-02-11T03:30:29.066Z,0.20
2023-02-11T03:33:09.439Z,0.30
2023-02-11T03:36:05.158Z,0.30
2023-02-11T03:38:38.679Z,0.30
2023-02-11T03:41:08.661Z,0.20
2023-02-11T03:43:44.816Z,0.20
2023-02-11T03:46:15.329Z,0.20
2023-02-11T03:48:49.978Z,0.30
2023-02-11T03:51:18.223Z,0.30
2023-02-11T03:53:47.306Z,0.30
2023-02-11T03:56:22.101Z,0.30
2023-02-11T03:58:49.729Z,0.30
2023-02-11T04:01:17.339Z,0.30
2023-02-11T04:03:44.802Z,0.30
2023-02-11T04:06:12.366Z,0.20
2023-02-11T04:08:39.791Z,0.20
2023-02-11T04:11:07.256Z,0.20
2023-02-11T04:13:34.730Z,0.20
2023-02-11T04:16:02.207Z,0.20
2023-02-11T04:18:29.732Z,0.20
2023-02-11T04:20:57.249Z,0.30
2023-02-11T04:23:24.714Z,0.30
2023-02-11T04:25:52.427Z,0.20
2023-02-11T04:28:20.295Z,0.20
2023-02-11T04:30:50.160Z,0.20
2023-02-11T04:33:18.058Z,0.20
2023-02-11T04:35:45.802Z,0.20
2023-02-11T04:38:13.649Z,0.20
2023-02-11T04:40:41.509Z,0.30
2023-02-11T04:43:09.033Z,0.30
2023-02-11T04:45:36.553Z,0.30
2023-02-11T04:48:04.729Z,0.30
2023-02-11T04:50:32.156Z,0.40
2023-02-11T04:52:59.681Z,0.40
2023-02-11T04:55:27.181Z,0.40
2023-02-11T04:57:55.472Z,0.40
2023-02-11T05:00:23.251Z,0.40
2023-02-11T05:02:50.674Z,0.50
2023-02-11T05:05:18.303Z,0.40
2023-02-11T05:07:45.934Z,0.40
2023-02-11T05:10:13.358Z,0.40
2023-02-11T05:12:40.787Z,0.40
2023-02-11T05:15:08.640Z,0.40
2023-02-11T05:17:36.128Z,0.40
2023-02-11T05:20:03.908Z,0.30
2023-02-11T05:22:31.416Z,0.30
2023-02-11T05:24:58.857Z,0.30
2023-02-11T05:27:26.320Z,0.40
2023-02-11T05:29:53.838Z,0.40
2023-02-11T05:32:21.305Z,0.50
2023-02-11T05:34:48.777Z,0.50
2023-02-11T05:37:16.509Z,0.50
2023-02-11T05:39:44.020Z,0.50
2023-02-11T05:42:11.616Z,0.50
2023-02-11T05:44:39.253Z,0.50
2023-02-11T05:47:09.199Z,0.60
2023-02-11T05:49:36.690Z,0.60
2023-02-11T05:52:04.505Z,0.60
2023-02-11T05:54:32.002Z,0.60
2023-02-11T05:56:59.485Z,0.60
2023-02-11T05:59:26.967Z,0.60
2023-02-11T06:01:54.406Z,0.70
2023-02-11T06:04:22.090Z,0.70
2023-02-11T06:06:49.593Z,0.70
2023-02-11T06:09:17.061Z,0.70
2023-02-11T06:11:44.520Z,0.70
2023-02-11T06:14:12.241Z,0.70
2023-02-11T06:16:39.723Z,0.70
2023-02-11T06:19:07.164Z,0.80
2023-02-11T06:21:43.340Z,0.80
2023-02-11T06:24:12.649Z,0.90
2023-02-11T06:26:40.377Z,0.90
2023-02-11T06:29:07.911Z,0.90
2023-02-11T06:31:37.871Z,1.00
2023-02-11T06:34:05.519Z,1.00
2023-02-11T06:36:32.997Z,1.00
2023-02-11T06:39:00.560Z,1.00
2023-02-11T06:41:28.086Z,1.00
2023-02-11T06:43:55.664Z,1.10
2023-02-11T06:46:23.513Z,1.20
2023-02-11T06:48:51.027Z,1.20
2023-02-11T06:51:18.613Z,1.20
2023-02-11T06:53:47.238Z,1.20
2023-02-11T06:56:18.855Z,1.20
2023-02-11T06:58:47.883Z,1.20
2023-02-11T07:01:16.943Z,1.20
2023-02-11T07:03:46.893Z,1.30
2023-02-11T07:06:24.933Z,1.30
2023-02-11T07:24:38.118Z,1.50
2023-02-11T07:27:05.684Z,1.70
2023-02-11T07:29:33.398Z,1.70
2023-02-11T07:32:00.916Z,1.80
2023-02-11T07:34:28.504Z,1.90
2023-02-11T07:36:56.012Z,2.00
2023-02-11T07:39:27.641Z,2.10
2023-02-11T07:41:55.349Z,2.40
2023-02-11T07:44:23.401Z,2.60
2023-02-11T07:46:50.923Z,2.80
2023-02-11T07:49:18.436Z,2.90
2023-02-11T07:51:46.217Z,3.00
2023-02-11T07:54:13.703Z,3.00
2023-02-11T07:56:41.204Z,3.00
2023-02-11T07:59:08.694Z,2.90
2023-02-11T08:01:36.239Z,2.90
2023-02-11T08:04:04.706Z,2.80
2023-02-11T08:06:35.174Z,2.80
2023-02-11T08:09:09.056Z,2.70
2023-02-11T08:11:37.104Z,2.70
2023-02-11T08:14:04.533Z,2.80
2023-02-11T08:16:39.034Z,2.80
2023-02-11T08:19:14.705Z,2.80
2023-02-11T08:21:43.246Z,2.80
2023-02-11T08:24:11.322Z,2.80
2023-02-11T08:26:38.921Z,2.80
2023-02-11T08:29:12.091Z,2.80
2023-02-11T08:31:43.858Z,2.90
2023-02-11T08:34:14.521Z,2.90
2023-02-11T08:36:43.949Z,2.90
2023-02-11T08:39:20.444Z,3.00
2023-02-11T08:41:57.020Z,3.10
2023-02-11T08:44:25.101Z,3.10
2023-02-11T08:46:53.024Z,3.00
2023-02-11T08:49:21.358Z,3.00
2023-02-11T08:51:49.903Z,3.00
2023-02-11T08:54:17.589Z,3.00
2023-02-11T08:56:45.545Z,3.00
2023-02-11T08:59:19.057Z,3.00
2023-02-11T09:01:47.930Z,3.00
2023-02-11T09:04:18.686Z,3.10
2023-02-11T09:06:46.474Z,3.20
2023-02-11T09:09:16.479Z,3.20
2023-02-11T09:11:45.776Z,3.30
2023-02-11T09:14:22.581Z,3.30
2023-02-11T09:16:50.857Z,3.30
2023-02-11T09:19:18.986Z,3.30
2023-02-11T09:21:47.073Z,3.30
2023-02-11T09:24:14.736Z,3.40
2023-02-11T09:26:43.796Z,3.40
2023-02-11T09:29:11.479Z,3.40
2023-02-11T09:31:39.220Z,3.50
2023-02-11T09:34:07.247Z,3.60
2023-02-11T09:36:38.793Z,3.60
2023-02-11T09:39:12.139Z,3.70
2023-02-11T09:42:22.083Z,3.80
2023-02-11T09:44:50.183Z,3.80
2023-02-11T09:47:35.032Z,3.80
2023-02-11T09:50:13.768Z,3.80
2023-02-11T09:52:59.025Z,3.80
2023-02-11T09:55:36.795Z,3.80
2023-02-11T09:58:18.056Z,3.90
2023-02-11T10:01:37.994Z,4.00
2023-02-11T10:04:18.468Z,4.10
2023-02-11T10:06:58.475Z,4.10
2023-02-11T10:10:21.768Z,4.10
2023-02-11T10:13:16.957Z,4.20
2023-02-11T10:16:08.506Z,4.10
2023-02-11T10:19:28.417Z,4.10
2023-02-11T10:22:12.701Z,4.20
2023-02-11T10:24:43.228Z,4.10
2023-02-11T10:27:21.217Z,4.30
2023-02-11T10:30:05.607Z,4.50
2023-02-11T10:32:49.581Z,4.60
2023-02-11T10:35:24.874Z,4.50
2023-02-11T10:37:52.272Z,4.50
2023-02-11T10:40:29.693Z,4.60
2023-02-11T10:43:02.872Z,4.50
2023-02-11T10:45:48.233Z,4.50
2023-02-11T10:48:53.562Z,4.60
2023-02-11T10:51:34.425Z,4.50
2023-02-11T10:54:04.433Z,4.60
2023-02-11T10:56:36.253Z,4.60
2023-02-11T10:59:21.693Z,4.60
2023-02-11T11:02:02.107Z,4.50
2023-02-11T11:04:44.195Z,4.50
2023-02-11T11:07:20.505Z,4.60
2023-02-11T11:09:59.432Z,4.60
2023-02-11T11:12:48.640Z,4.60
2023-02-11T11:15:28.076Z,4.50
2023-02-11T11:18:22.448Z,4.60
2023-02-11T11:21:00.412Z,4.60
2023-02-11T11:23:30.584Z,4.70
2023-02-11T11:26:12.763Z,4.80
2023-02-11T11:29:01.931Z,4.80
2023-02-11T11:31:37.894Z,4.80
2023-02-11T11:34:32.678Z,4.90
2023-02-11T11:37:09.764Z,4.90
2023-02-11T11:39:37.292Z,4.90
2023-02-11T11:42:26.315Z,4.90
2023-02-11T11:45:04.777Z,4.90
2023-02-11T11:48:23.036Z,4.80
2023-02-11T11:51:02.625Z,4.80
2023-02-11T11:53:46.649Z,4.80
2023-02-11T11:57:04.923Z,4.80
2023-02-11T11:59:32.955Z,4.80
2023-02-11T12:02:39.097Z,4.80
2023-02-11T12:05:27.441Z,4.70
2023-02-11T12:08:36.070Z,4.70
2023-02-11T12:11:29.414Z,4.60
2023-02-11T12:14:28.559Z,4.70
2023-02-11T12:58:02.036Z,5.00
2023-02-11T13:00:47.247Z,5.00
2023-02-11T13:03:26.750Z,5.10
2023-02-11T13:06:00.423Z,5.00
2023-02-11T13:08:41.104Z,5.10
2023-02-11T13:11:33.456Z,5.00
2023-02-11T13:14:12.892Z,5.00
2023-02-11T13:16:45.919Z,5.00
2023-02-11T13:19:27.595Z,5.00
2023-02-11T13:22:02.809Z,5.00
2023-02-11T13:24:49.598Z,5.00
2023-02-11T13:27:59.512Z,5.00
2023-02-11T13:30:35.334Z,5.00
2023-02-11T13:33:14.698Z,4.90
2023-02-11T13:35:57.694Z,5.00
2023-02-11T13:38:31.131Z,5.00
2023-02-11T13:41:32.351Z,5.00
2023-02-11T13:44:11.541Z,5.00
2023-02-11T13:47:08.534Z,5.00
2023-02-11T13:49:40.965Z,5.00
2023-02-11T13:52:30.253Z,5.00
2023-02-11T13:55:21.687Z,5.00
2023-02-11T13:58:09.224Z,5.00
2023-02-11T14:00:37.080Z,5.00
2023-02-11T14:03:32.099Z,5.00
2023-02-11T14:06:27.059Z,5.00
2023-02-11T14:09:09.318Z,5.00
2023-02-11T14:11:48.074Z,5.00
2023-02-11T14:14:34.161Z,5.00
2023-02-11T14:17:07.901Z,5.00
2023-02-11T14:19:45.478Z,5.00
2023-02-11T14:22:29.878Z,5.10
2023-02-11T14:25:02.695Z,5.00
2023-02-11T14:27:57.958Z,5.10
2023-02-11T14:30:45.339Z,5.00
2023-02-11T14:33:59.741Z,4.90
2023-02-11T14:37:00.052Z,4.90
2023-02-11T14:40:15.978Z,4.90
2023-02-11T14:42:43.807Z,4.90
2023-02-11T14:45:18.919Z,4.90
2023-02-11T14:48:14.496Z,4.80
2023-02-11T14:51:16.508Z,4.80
2023-02-11T14:54:17.195Z,4.60
2023-02-11T14:56:46.983Z,4.50
2023-02-11T14:59:23.330Z,4.50
2023-02-11T15:01:56.382Z,4.50
2023-02-11T15:04:36.620Z,4.40
2023-02-11T15:07:10.829Z,4.40
2023-02-11T15:09:43.377Z,4.30
2023-02-11T15:12:26.042Z,4.20
2023-02-11T15:15:00.792Z,4.20
2023-02-11T15:17:32.101Z,4.10
2023-02-11T15:20:02.412Z,4.20
2023-02-11T15:22:34.042Z,4.20
2023-02-11T15:25:09.897Z,4.20
2023-02-11T15:27:48.323Z,4.10
2023-02-11T15:30:21.878Z,4.10
2023-02-11T15:32:52.417Z,4.10
2023-02-11T15:35:20.008Z,4.10
2023-02-11T15:37:50.209Z,4.10
2023-02-11T15:40:23.217Z,4.10
2023-02-11T15:42:58.073Z,4.10
2023-02-11T15:45:33.966Z,4.00
2023-02-11T15:48:14.864Z,4.10
2023-02-11T15:50:43.939Z,4.00
2023-02-11T15:53:27.738Z,4.00
2023-02-11T15:56:17.756Z,4.00
2023-02-11T15:58:48.372Z,4.00
2023-02-11T16:01:16.408Z,4.00
2023-02-11T16:03:44.599Z,4.10
2023-02-11T16:06:29.612Z,4.10
2023-02-11T16:09:06.487Z,4.10
2023-02-11T16:11:38.529Z,4.10
2023-02-11T16:14:27.188Z,4.10
2023-02-11T16:17:29.209Z,4.00
2023-02-11T16:19:56.957Z,4.00
2023-02-11T16:22:30.463Z,4.10
2023-02-11T16:24:59.836Z,4.10
2023-02-11T16:27:36.052Z,4.10
2023-02-11T16:30:04.315Z,4.10
2023-02-11T16:32:31.989Z,4.10
2023-02-11T16:35:04.300Z,4.10
2023-02-11T16:37:32.490Z,4.10
2023-02-11T16:39:59.967Z,4.10
2023-02-11T16:42:27.478Z,4.10
2023-02-11T16:44:54.902Z,4.10
2023-02-11T16:47:28.181Z,4.20
2023-02-11T16:49:57.039Z,4.10
2023-02-11T16:52:25.813Z,4.10
2023-02-11T16:54:53.613Z,4.10
2023-02-11T16:57:25.713Z,4.20
2023-02-11T16:59:53.936Z,4.20
2023-02-11T17:02:27.816Z,4.20
2023-02-11T17:04:59.160Z,4.20
2023-02-11T17:07:27.263Z,4.20
2023-02-11T17:09:54.781Z,4.20
2023-02-11T17:12:25.532Z,4.20
2023-02-11T17:14:54.191Z,4.20
2023-02-11T17:17:23.948Z,4.30
2023-02-11T17:19:51.545Z,4.30
2023-02-11T17:22:19.137Z,4.30
2023-02-11T17:24:46.588Z,4.30
2023-02-11T17:27:14.213Z,4.30
2023-02-11T17:29:42.110Z,4.30
2023-02-11T17:32:09.673Z,4.30
2023-02-11T17:34:37.210Z,4.30
2023-02-11T17:37:09.284Z,4.30
2023-02-11T17:39:39.665Z,4.30
2023-02-11T17:42:08.880Z,4.30
2023-02-11T17:44:36.589Z,4.30
2023-02-11T17:47:04.317Z,4.30
2023-02-11T17:49:31.736Z,4.40
2023-02-11T17:51:59.221Z,4.40
2023-02-11T17:54:26.713Z,4.30
2023-02-11T17:56:57.810Z,4.30
2023-02-11T17:59:26.193Z,4.30
2023-02-11T18:01:53.678Z,4.30
2023-02-11T18:04:21.237Z,4.30
2023-02-11T18:06:48.972Z,4.30
2023-02-11T18:09:16.440Z,4.40
2023-02-11T18:11:43.845Z,4.40
2023-02-11T18:14:11.893Z,4.40
2023-02-11T18:16:43.171Z,4.50
2023-02-11T18:19:12.019Z,4.50
2023-02-11T18:21:39.792Z,4.50
2023-02-11T18:24:07.434Z,4.50
2023-02-11T18:26:35.599Z,4.50
2023-02-11T18:29:04.072Z,4.40
2023-02-11T18:31:31.823Z,4.40
2023-02-11T18:33:59.358Z,4.40
2023-02-11T18:36:26.767Z,4.40
2023-02-11T18:38:54.506Z,4.40
2023-02-11T18:41:22.080Z,4.50
2023-02-11T18:43:50.109Z,4.40
2023-02-11T18:46:17.899Z,4.50
2023-02-11T18:48:45.598Z,4.50
2023-02-11T18:51:18.475Z,4.50
2023-02-11T18:53:46.136Z,4.50
2023-02-11T18:56:20.795Z,4.50
2023-02-11T18:58:49.192Z,4.50
2023-02-11T19:01:19.448Z,4.50
2023-02-11T19:03:47.227Z,4.60
2023-02-11T19:06:18.385Z,4.60
2023-02-11T19:08:46.844Z,4.60
2023-02-11T19:11:16.344Z,4.60
2023-02-11T19:13:43.799Z,4.60
2023-02-11T19:16:14.085Z,4.50
2023-02-11T19:18:41.553Z,4.60
2023-02-11T19:21:11.371Z,4.60
2023-02-11T19:23:38.957Z,4.60
2023-02-11T19:26:06.655Z,4.60
2023-02-11T19:28:37.148Z,4.60
2023-02-11T19:31:09.601Z,4.70
2023-02-11T19:33:37.434Z,4.70
2023-02-11T19:36:07.493Z,4.70
2023-02-11T19:38:36.435Z,4.70
2023-02-11T19:41:04.081Z,4.60
2023-02-11T19:43:31.572Z,4.70
2023-02-11T19:45:59.083Z,4.60
2023-02-11T19:48:26.628Z,4.60
2023-02-11T19:50:54.797Z,4.60
2023-02-11T19:53:22.638Z,4.60
2023-02-11T19:55:50.460Z,4.60
2023-02-11T19:58:18.805Z,4.50
2023-02-11T20:00:46.241Z,4.50
2023-02-11T20:03:13.662Z,4.60
2023-02-11T20:05:43.648Z,4.60
2023-02-11T20:08:11.337Z,4.60
2023-02-11T20:10:38.807Z,4.60
2023-02-11T20:13:06.258Z,4.60
2023-02-11T20:15:33.723Z,4.60
2023-02-11T20:18:01.212Z,4.60
2023-02-11T20:20:28.720Z,4.60
2023-02-11T20:22:56.164Z,4.70
2023-02-11T20:25:23.614Z,4.80
2023-02-11T20:27:51.092Z,4.80
2023-02-11T20:30:18.625Z,4.90
2023-02-11T20:32:46.159Z,4.90
2023-02-11T20:35:13.556Z,4.90
2023-02-11T20:37:44.049Z,4.80
2023-02-11T20:40:12.405Z,4.80
2023-02-11T20:42:40.513Z,4.90
2023-02-11T20:45:08.577Z,5.00
2023-02-11T20:47:38.343Z,5.00
2023-02-11T20:50:06.965Z,5.00
2023-02-11T20:52:34.496Z,4.90
2023-02-11T20:55:02.010Z,5.00
2023-02-11T20:57:29.502Z,5.00
2023-02-11T20:59:57.336Z,5.00
2023-02-11T21:02:25.043Z,5.00
2023-02-11T21:04:52.531Z,5.00
2023-02-11T21:07:20.177Z,5.00
2023-02-11T21:09:47.757Z,5.00
2023-02-11T21:12:15.283Z,5.10
2023-02-11T21:14:42.707Z,5.10
2023-02-11T21:17:10.091Z,5.10
2023-02-11T21:19:37.524Z,5.10
2023-02-11T21:22:05.014Z,5.10
2023-02-11T21:24:32.678Z,5.10
2023-02-11T21:27:00.332Z,5.20
2023-02-11T21:29:27.757Z,5.20
2023-02-11T21:31:55.628Z,5.20
2023-02-11T21:34:23.052Z,5.10
2023-02-11T21:36:51.401Z,5.10
2023-02-11T21:39:20.528Z,5.10
2023-02-11T21:41:48.175Z,5.10
2023-02-11T21:44:15.663Z,5.20
2023-02-11T21:46:43.138Z,5.20
2023-02-11T21:49:11.003Z,5.20
2023-02-11T21:51:39.663Z,5.20
2023-02-11T21:54:07.096Z,5.30
2023-02-11T21:56:35.676Z,5.20
2023-02-11T21:59:03.593Z,5.30
2023-02-11T22:01:35.445Z,5.20
2023-02-11T22:04:03.276Z,5.20
2023-02-11T22:06:34.073Z,5.30
2023-02-11T22:09:08.267Z,5.30
2023-02-11T22:11:36.174Z,5.30
2023-02-11T22:14:03.926Z,5.30
2023-02-11T22:16:33.700Z,5.40
2023-02-11T22:19:02.683Z,5.30
2023-02-11T22:21:30.434Z,5.30
2023-02-11T22:23:58.065Z,5.30
2023-02-11T22:26:27.969Z,5.30
2023-02-11T22:28:56.213Z,5.30
2023-02-11T22:31:30.422Z,5.30
2023-02-11T22:33:59.072Z,5.30
2023-02-11T22:36:30.964Z,5.30
2023-02-11T22:39:03.490Z,5.30
2023-02-11T22:41:31.345Z,5.40
2023-02-11T22:43:59.003Z,5.40
2023-02-11T22:46:26.828Z,5.40
2023-02-11T22:48:54.404Z,5.40
2023-02-11T22:51:25.902Z,5.40
2023-02-11T22:54:02.822Z,5.40
2023-02-11T22:56:32.582Z,5.40
2023-02-11T22:59:04.050Z,5.50
2023-02-11T23:01:32.291Z,5.50
2023-02-11T23:04:02.052Z,5.40
2023-02-11T23:06:29.456Z,5.40
2023-02-11T23:08:56.994Z,5.50
2023-02-11T23:11:29.313Z,5.50
2023-02-11T23:13:57.284Z,5.50
2023-02-11T23:16:31.495Z,5.50
2023-02-11T23:19:07.160Z,5.50
2023-02-11T23:21:37.643Z,5.60
2023-02-11T23:24:11.536Z,5.50
2023-02-11T23:26:40.637Z,5.50
2023-02-11T23:29:08.670Z,5.50
2023-02-11T23:31:40.080Z,5.50
2023-02-11T23:34:08.754Z,5.60
2023-02-11T23:36:37.284Z,5.60
2023-02-11T23:39:05.316Z,5.60
2023-02-11T23:41:32.797Z,5.60
2023-02-11T23:44:00.334Z,5.60
2023-02-11T23:46:28.560Z,5.60
2023-02-11T23:48:56.464Z,5.60
2023-02-11T23:51:24.535Z,5.60
2023-02-11T23:53:52.866Z,5.60
2023-02-11T23:56:25.293Z,5.60
2023-02-11T23:58:55.618Z,5.60
